Time;durP1;ratioP1;P1;durP2;ratioP2;P2;SDS_P1;SDS_P2;PMS_P1;PMS_P2;Temp;Humidity;BMP_temperature;BMP_pressure;BME280_temperature;BME280_humidity;BME280_pressure;Samples;Min_cycle;Max_cycle;Signal;HPM_P1;HPM_P2
2023/05/18 00:00:01;;;;;;;4.70;3.25;;;4.60;99.90;;;;;;5049221;28;20665;-69
2023/05/18 00:02:27;;;;;;;3.75;3.45;;;4.60;99.90;;;;;;5049828;28;20197;-68
2023/05/18 00:04:54;;;;;;;5.10;3.00;;;4.60;99.90;;;;;;5048970;28;20228;-69
2023/05/18 00:07:21;;;;;;;8.57;3.17;;;4.60;99.90;;;;;;5049648;28;20700;-69
2023/05/18 00:09:47;;;;;;;11.52;3.67;;;4.60;99.90;;;;;;5049530;28;20193;-68
2023/05/18 00:12:16;;;;;;;4.60;3.50;;;4.70;99.90;;;;;;5049630;28;20235;-68
2023/05/18 00:14:42;;;;;;;6.53;3.60;;;4.60;99.90;;;;;;5056309;28;20193;-68
2023/05/18 00:17:09;;;;;;;3.70;2.90;;;4.60;99.90;;;;;;5069133;28;20733;-69
2023/05/18 00:19:36;;;;;;;4.65;3.00;;;4.60;99.90;;;;;;5069482;28;20196;-69
2023/05/18 00:22:06;;;;;;;3.72;3.25;;;4.60;99.90;;;;;;5069176;28;20212;-69
2023/05/18 00:24:33;;;;;;;5.40;3.42;;;4.70;99.90;;;;;;5069446;28;20222;-68
2023/05/18 00:26:59;;;;;;;4.25;2.47;;;4.70;99.90;;;;;;5069163;28;20224;-69
2023/05/18 00:29:27;;;;;;;5.72;3.92;;;4.70;99.90;;;;;;5069462;28;20197;-69
2023/05/18 00:31:54;;;;;;;4.78;3.17;;;4.60;99.90;;;;;;5069192;28;20205;-69
2023/05/18 00:34:21;;;;;;;5.15;3.17;;;4.60;99.90;;;;;;5068940;28;20200;-69
2023/05/18 00:36:47;;;;;;;5.80;3.50;;;4.60;99.90;;;;;;5069379;28;20216;-68
2023/05/18 00:39:14;;;;;;;3.45;3.10;;;4.60;99.90;;;;;;5068964;28;20219;-69
2023/05/18 00:41:41;;;;;;;7.78;4.00;;;4.50;99.90;;;;;;5072287;28;20208;-69
2023/05/18 00:44:08;;;;;;;4.35;3.58;;;4.50;99.90;;;;;;5072475;28;20205;-68
2023/05/18 00:46:36;;;;;;;6.45;3.38;;;4.50;99.90;;;;;;5072287;28;20243;-68
2023/05/18 00:49:02;;;;;;;6.43;3.40;;;4.40;99.90;;;;;;5072453;28;20677;-68
2023/05/18 00:51:31;;;;;;;6.72;3.85;;;4.40;99.90;;;;;;5072530;28;20671;-68
2023/05/18 00:53:59;;;;;;;6.03;3.00;;;4.40;99.90;;;;;;5072402;28;20193;-69
2023/05/18 00:56:27;;;;;;;3.10;2.75;;;4.30;99.90;;;;;;5072292;28;20219;-69
2023/05/18 00:58:55;;;;;;;5.35;3.90;;;4.30;99.90;;;;;;5072584;28;20192;-68
2023/05/18 01:01:27;;;;;;;5.97;3.42;;;4.30;99.90;;;;;;5072420;28;20203;-69
2023/05/18 01:03:56;;;;;;;5.20;3.20;;;4.30;99.90;;;;;;5072320;28;20234;-69
2023/05/18 01:06:25;;;;;;;5.55;3.60;;;4.30;99.90;;;;;;5072131;28;20228;-68
2023/05/18 01:08:52;;;;;;;4.10;2.97;;;4.30;99.90;;;;;;5072536;28;20228;-68
2023/05/18 01:11:26;;;;;;;3.90;2.85;;;4.30;99.90;;;;;;5072171;28;20719;-68
2023/05/18 01:14:01;;;;;;;3.40;3.10;;;4.30;99.90;;;;;;5065464;28;20208;-69
2023/05/18 01:16:36;;;;;;;4.38;3.60;;;4.20;99.90;;;;;;5071888;28;20215;-69
2023/05/18 01:19:23;;;;;;;3.47;2.40;;;4.20;99.90;;;;;;5072050;28;20192;-68
2023/05/18 01:22:02;;;;;;;5.05;3.42;;;4.20;99.90;;;;;;5072203;28;20228;-69
2023/05/18 01:24:35;;;;;;;4.10;3.13;;;4.20;99.90;;;;;;5071878;28;20196;-69
2023/05/18 01:27:07;;;;;;;5.10;3.15;;;4.10;99.90;;;;;;5071808;28;20261;-69
2023/05/18 01:29:34;;;;;;;5.03;3.25;;;4.10;99.90;;;;;;5071886;28;20196;-68
2023/05/18 01:32:01;;;;;;;4.07;3.10;;;4.10;99.90;;;;;;5071624;28;20197;-69
2023/05/18 01:34:27;;;;;;;4.35;3.50;;;4.00;99.90;;;;;;5071559;28;20201;-68
2023/05/18 01:36:54;;;;;;;5.00;4.07;;;4.00;99.90;;;;;;5071914;28;20243;-68
2023/05/18 01:39:21;;;;;;;5.60;3.70;;;4.00;99.90;;;;;;5071770;28;20212;-69
2023/05/18 01:41:55;;;;;;;3.45;3.13;;;4.00;99.90;;;;;;5071919;28;20588;-68
2023/05/18 01:44:28;;;;;;;4.47;3.30;;;4.10;99.90;;;;;;5043281;28;20201;-68
2023/05/18 01:47:01;;;;;;;5.15;3.35;;;4.10;99.90;;;;;;5051544;28;20684;-69
2023/05/18 01:49:32;;;;;;;6.32;3.60;;;4.20;99.90;;;;;;5044254;28;20209;-68
2023/05/18 01:52:04;;;;;;;3.88;3.00;;;4.20;99.90;;;;;;5050866;28;20247;-69
2023/05/18 01:54:33;;;;;;;7.57;5.47;;;4.20;99.90;;;;;;5051355;28;20197;-69
2023/05/18 01:57:01;;;;;;;10.13;3.60;;;4.20;99.90;;;;;;5051280;28;20224;-69
2023/05/18 01:59:30;;;;;;;5.45;3.40;;;4.20;99.90;;;;;;5055844;28;20220;-68
2023/05/18 02:01:59;;;;;;;5.50;3.75;;;4.20;99.90;;;;;;5070952;28;20197;-69
2023/05/18 02:04:26;;;;;;;4.05;3.05;;;4.20;99.90;;;;;;5071109;28;20200;-69
2023/05/18 02:06:54;;;;;;;6.38;3.67;;;4.20;99.90;;;;;;5071249;28;20653;-69
2023/05/18 02:09:21;;;;;;;4.30;3.22;;;4.10;99.90;;;;;;5070831;28;20203;-69
2023/05/18 02:11:48;;;;;;;4.60;3.80;;;4.10;99.90;;;;;;5071207;28;20197;-69
2023/05/18 02:14:14;;;;;;;6.80;3.30;;;4.00;99.90;;;;;;5070474;28;20208;-69
2023/05/18 02:16:46;;;;;;;4.00;3.50;;;4.00;99.90;;;;;;5071045;28;20593;-70
2023/05/18 02:19:13;;;;;;;6.05;3.85;;;4.00;99.90;;;;;;5070787;28;20203;-69
2023/05/18 02:21:42;;;;;;;5.20;3.50;;;3.90;99.90;;;;;;5071043;28;20236;-67
2023/05/18 02:24:08;;;;;;;4.85;3.53;;;3.90;99.90;;;;;;5070646;28;20200;-69
2023/05/18 02:26:36;;;;;;;9.85;4.57;;;3.90;99.90;;;;;;5070485;28;20224;-70
2023/05/18 02:29:03;;;;;;;5.88;3.50;;;3.80;99.90;;;;;;5070659;28;20228;-68
2023/05/18 02:31:30;;;;;;;4.15;3.05;;;3.80;99.90;;;;;;5070530;28;20575;-69
2023/05/18 02:33:58;;;;;;;5.80;3.50;;;3.80;99.90;;;;;;5070734;28;20283;-69
2023/05/18 02:36:25;;;;;;;12.68;3.97;;;3.80;99.90;;;;;;5070302;28;20220;-69
2023/05/18 02:38:52;;;;;;;4.40;3.63;;;3.70;99.90;;;;;;5070793;28;20193;-69
2023/05/18 02:41:19;;;;;;;6.32;3.80;;;3.70;99.90;;;;;;5070290;28;20207;-68
2023/05/18 02:43:46;;;;;;;6.13;3.30;;;3.70;99.90;;;;;;5070612;28;20200;-68
2023/05/18 02:46:13;;;;;;;3.75;3.30;;;3.70;99.90;;;;;;5069599;28;20250;-68
2023/05/18 02:48:44;;;;;;;4.97;3.92;;;3.70;99.90;;;;;;5070684;28;20199;-68
2023/05/18 02:51:12;;;;;;;6.93;3.58;;;3.60;99.90;;;;;;5070093;28;20204;-69
2023/05/18 02:53:39;;;;;;;4.07;3.47;;;3.60;99.90;;;;;;5070488;28;20547;-68
2023/05/18 02:56:06;;;;;;;4.80;3.47;;;3.60;99.90;;;;;;5069762;28;20679;-68
2023/05/18 02:58:33;;;;;;;6.55;4.45;;;3.60;99.90;;;;;;5070425;28;20204;-68
2023/05/18 03:01:02;;;;;;;5.63;4.15;;;3.50;99.90;;;;;;5070180;28;20208;-68
2023/05/18 03:03:29;;;;;;;7.25;4.53;;;3.50;99.90;;;;;;5069523;28;20200;-68
2023/05/18 03:05:55;;;;;;;5.25;3.38;;;3.50;99.90;;;;;;5069552;28;20726;-69
2023/05/18 03:08:25;;;;;;;5.80;4.00;;;3.50;99.90;;;;;;5070058;28;20591;-69
2023/05/18 03:10:52;;;;;;;6.00;3.60;;;3.50;99.90;;;;;;5070078;28;20299;-69
2023/05/18 03:13:19;;;;;;;6.70;4.10;;;3.50;99.90;;;;;;5069773;28;20208;-68
2023/05/18 03:15:46;;;;;;;5.05;3.00;;;3.40;99.90;;;;;;5070018;28;20201;-69
2023/05/18 03:18:12;;;;;;;5.63;4.32;;;3.40;99.90;;;;;;5069844;28;20233;-69
2023/05/18 03:20:39;;;;;;;5.28;3.20;;;3.40;99.90;;;;;;5070028;28;20204;-68
2023/05/18 03:23:06;;;;;;;6.63;4.32;;;3.40;99.90;;;;;;5069918;28;20254;-69
2023/05/18 03:25:36;;;;;;;5.30;4.35;;;3.40;99.90;;;;;;5069981;28;20658;-69
2023/05/18 03:28:03;;;;;;;5.63;3.45;;;3.40;99.90;;;;;;5069899;28;20733;-68
2023/05/18 03:30:31;;;;;;;6.55;3.60;;;3.40;99.90;;;;;;5069850;28;20207;-68
2023/05/18 03:32:58;;;;;;;6.60;3.65;;;3.30;99.90;;;;;;5070200;28;20714;-67
2023/05/18 03:35:25;;;;;;;6.22;3.95;;;3.30;99.90;;;;;;5069255;28;20192;-68
2023/05/18 03:37:51;;;;;;;4.50;3.60;;;3.30;99.90;;;;;;5070090;28;20216;-68
2023/05/18 03:40:20;;;;;;;7.38;4.55;;;3.30;99.90;;;;;;5069517;28;20207;-69
2023/05/18 03:42:48;;;;;;;5.47;4.03;;;3.30;99.90;;;;;;5069855;28;20201;-68
2023/05/18 03:45:15;;;;;;;5.80;4.55;;;3.30;99.90;;;;;;5069234;28;20247;-68
2023/05/18 03:47:41;;;;;;;5.47;4.15;;;3.30;99.90;;;;;;5069926;28;20240;-68
2023/05/18 03:50:08;;;;;;;5.28;4.72;;;3.30;99.90;;;;;;5069452;28;20208;-70
2023/05/18 03:52:36;;;;;;;6.10;3.97;;;3.30;99.90;;;;;;5069925;28;20200;-69
2023/05/18 03:55:04;;;;;;;6.35;3.55;;;3.30;99.90;;;;;;5069526;28;20197;-69
2023/05/18 03:57:31;;;;;;;6.45;4.30;;;3.30;99.90;;;;;;5069521;28;20707;-69
2023/05/18 03:59:59;;;;;;;7.18;4.82;;;3.30;99.90;;;;;;5069694;28;20200;-69
2023/05/18 04:02:26;;;;;;;6.72;4.80;;;3.30;99.90;;;;;;5069397;28;20204;-69
2023/05/18 04:04:53;;;;;;;5.13;3.20;;;3.40;99.90;;;;;;5069469;28;20208;-69
2023/05/18 04:07:22;;;;;;;9.00;4.00;;;3.40;99.90;;;;;;5069214;28;20270;-68
2023/05/18 04:09:50;;;;;;;7.45;4.40;;;3.40;99.90;;;;;;5069457;28;20193;-68
2023/05/18 04:12:17;;;;;;;5.97;3.90;;;3.40;99.90;;;;;;5069447;28;20595;-69
2023/05/18 04:14:48;;;;;;;5.10;4.32;;;3.40;99.90;;;;;;5069506;28;20197;-68
2023/05/18 04:17:20;;;;;;;5.93;4.20;;;3.50;99.90;;;;;;5073091;28;20738;-68
2023/05/18 04:19:48;;;;;;;6.55;3.83;;;3.50;99.90;;;;;;5073343;28;20668;-69
2023/05/18 04:22:15;;;;;;;5.38;4.03;;;3.50;99.90;;;;;;5073005;28;20204;-69
2023/05/18 04:24:44;;;;;;;5.30;3.85;;;3.60;99.90;;;;;;5073102;28;20196;-69
2023/05/18 04:27:11;;;;;;;6.97;4.38;;;3.60;99.90;;;;;;5072715;28;20274;-68
2023/05/18 04:29:39;;;;;;;4.07;3.60;;;3.60;99.90;;;;;;5072931;28;20621;-69
2023/05/18 04:32:06;;;;;;;5.63;4.13;;;3.70;99.90;;;;;;5073020;28;20231;-68
2023/05/18 04:34:36;;;;;;;5.32;3.55;;;3.80;99.90;;;;;;5072625;28;20200;-69
2023/05/18 04:37:04;;;;;;;10.75;4.78;;;3.80;99.90;;;;;;5073802;28;20215;-69
2023/05/18 04:39:31;;;;;;;5.03;3.72;;;3.90;99.90;;;;;;5069082;28;20568;-69
2023/05/18 04:41:58;;;;;;;5.50;4.40;;;3.90;99.90;;;;;;5052945;28;20197;-69
2023/05/18 04:44:26;;;;;;;6.05;4.13;;;4.00;99.90;;;;;;5052303;28;20201;-68
2023/05/18 04:46:53;;;;;;;4.70;3.90;;;4.10;99.90;;;;;;5052664;28;20654;-69
2023/05/18 04:49:20;;;;;;;4.45;3.28;;;4.10;99.90;;;;;;5052392;28;20201;-69
2023/05/18 04:51:54;;;;;;;6.47;3.88;;;4.20;99.90;;;;;;5052678;28;20205;-68
2023/05/18 04:54:22;;;;;;;5.25;3.70;;;4.30;99.90;;;;;;5052179;28;20204;-68
2023/05/18 04:56:48;;;;;;;5.68;3.80;;;4.40;99.90;;;;;;5052550;28;20213;-69
2023/05/18 04:59:15;;;;;;;4.55;3.45;;;4.40;99.90;;;;;;5052171;28;20723;-68
2023/05/18 05:01:42;;;;;;;5.97;4.05;;;4.50;99.90;;;;;;5052680;28;20205;-69
2023/05/18 05:04:09;;;;;;;9.30;4.35;;;4.60;99.90;;;;;;5052350;28;20209;-69
2023/05/18 05:06:35;;;;;;;3.65;3.35;;;4.70;99.90;;;;;;5051902;28;20221;-68
2023/05/18 05:09:04;;;;;;;4.18;3.67;;;4.80;99.90;;;;;;5052562;28;20201;-69
2023/05/18 05:11:31;;;;;;;3.75;3.22;;;4.90;99.90;;;;;;5051748;28;20212;-69
2023/05/18 05:13:57;;;;;;;6.05;4.63;;;5.00;99.90;;;;;;5052449;28;20197;-69
2023/05/18 05:16:24;;;;;;;6.15;3.65;;;5.10;99.90;;;;;;5051624;28;20221;-69
2023/05/18 05:18:51;;;;;;;7.38;3.83;;;5.10;99.90;;;;;;5052352;28;20193;-69
2023/05/18 05:21:17;;;;;;;6.43;4.47;;;5.20;99.90;;;;;;5051758;28;20220;-69
2023/05/18 05:23:45;;;;;;;4.20;3.60;;;5.30;99.90;;;;;;5052340;28;20203;-68
2023/05/18 05:26:13;;;;;;;5.30;3.88;;;5.40;99.90;;;;;;5051111;28;20216;-69
2023/05/18 05:28:40;;;;;;;5.13;4.15;;;5.50;99.90;;;;;;5051368;28;20208;-68
2023/05/18 05:31:08;;;;;;;6.38;4.75;;;5.60;99.90;;;;;;5051970;28;20267;-68
2023/05/18 05:33:34;;;;;;;6.55;3.70;;;5.70;99.90;;;;;;5051818;28;20748;-69
2023/05/18 05:36:03;;;;;;;5.95;4.03;;;5.80;99.90;;;;;;5051624;28;20193;-69
2023/05/18 05:38:30;;;;;;;5.63;4.03;;;5.90;99.90;;;;;;5051657;28;20708;-69
2023/05/18 05:40:57;;;;;;;6.82;4.35;;;6.00;99.90;;;;;;5051724;28;20204;-69
2023/05/18 05:43:25;;;;;;;5.07;3.65;;;6.10;99.90;;;;;;5051613;28;20201;-69
2023/05/18 05:45:51;;;;;;;4.15;3.60;;;6.20;99.90;;;;;;5051338;28;20197;-68
2023/05/18 05:48:18;;;;;;;6.95;3.97;;;6.30;99.90;;;;;;5051272;28;20726;-69
2023/05/18 05:50:45;;;;;;;4.45;3.65;;;6.40;99.90;;;;;;5051462;28;20656;-69
2023/05/18 05:53:11;;;;;;;7.90;3.83;;;6.50;99.90;;;;;;5051648;28;20597;-69
2023/05/18 05:55:40;;;;;;;4.28;3.28;;;6.60;99.90;;;;;;5051076;28;20212;-69
2023/05/18 05:58:07;;;;;;;5.68;3.42;;;6.70;99.90;;;;;;5051686;28;20596;-69
2023/05/18 06:00:35;;;;;;;3.88;3.13;;;6.80;99.90;;;;;;5050932;28;20205;-69
2023/05/18 06:03:02;;;;;;;5.68;3.63;;;6.90;99.90;;;;;;5051609;28;20605;-69
2023/05/18 06:05:29;;;;;;;3.60;2.97;;;6.90;99.90;;;;;;5050786;28;20208;-69
2023/05/18 06:07:56;;;;;;;7.85;3.90;;;7.00;99.90;;;;;;5051299;28;20221;-69
2023/05/18 06:10:23;;;;;;;4.43;3.67;;;7.00;99.90;;;;;;5050822;28;20682;-69
2023/05/18 06:12:49;;;;;;;5.13;3.35;;;7.10;99.90;;;;;;5051469;28;20270;-69
2023/05/18 06:15:16;;;;;;;4.07;3.40;;;7.20;99.90;;;;;;5050664;28;20205;-69
2023/05/18 06:17:44;;;;;;;4.43;3.28;;;7.30;99.90;;;;;;5050851;28;20216;-69
2023/05/18 06:20:12;;;;;;;8.02;3.65;;;7.40;99.90;;;;;;5045972;28;20204;-69
2023/05/18 06:22:39;;;;;;;5.55;2.90;;;7.50;99.90;;;;;;5049351;28;20201;-69
2023/05/18 06:25:07;;;;;;;3.97;3.50;;;7.60;99.90;;;;;;5049139;28;20208;-69
2023/05/18 06:30:13;;;;;;;5.32;3.10;;;7.90;99.90;;;;;;5240285;23;20729;-73
2023/05/18 06:32:42;;;;;;;5.38;3.47;;;8.10;99.90;;;;;;5009874;28;20665;-73
2023/05/18 06:35:11;;;;;;;4.60;3.40;;;8.20;99.90;;;;;;5010947;28;20592;-73
2023/05/18 06:37:38;;;;;;;7.90;3.42;;;8.20;99.90;;;;;;4995792;28;20305;-72
2023/05/18 06:40:07;;;;;;;3.55;2.88;;;8.30;99.90;;;;;;4991207;28;20227;-73
2023/05/18 06:42:34;;;;;;;5.25;2.70;;;8.50;99.90;;;;;;5007274;28;20289;-73
2023/05/18 06:45:01;;;;;;;4.57;3.60;;;8.60;99.90;;;;;;4990120;28;20210;-73
2023/05/18 06:47:27;;;;;;;5.13;3.00;;;8.60;99.90;;;;;;4989853;28;20223;-73
2023/05/18 06:49:54;;;;;;;5.25;3.00;;;8.80;99.90;;;;;;4991387;28;20203;-72
2023/05/18 06:52:23;;;;;;;5.13;3.38;;;8.80;99.90;;;;;;4991248;28;20210;-73
2023/05/18 06:54:50;;;;;;;3.40;2.80;;;8.90;99.90;;;;;;4991033;28;20659;-72
2023/05/18 06:57:17;;;;;;;3.90;2.60;;;9.10;99.90;;;;;;4990606;28;20226;-72
2023/05/18 06:59:44;;;;;;;4.18;2.67;;;9.10;99.90;;;;;;4991219;28;20298;-72
2023/05/18 07:02:10;;;;;;;5.07;2.55;;;9.20;99.90;;;;;;4982945;28;20266;-73
2023/05/18 07:04:37;;;;;;;5.15;3.30;;;9.30;99.90;;;;;;4998320;28;20198;-73
2023/05/18 07:07:04;;;;;;;4.20;2.92;;;9.40;99.90;;;;;;5003198;28;20219;-73
2023/05/18 07:09:32;;;;;;;4.97;2.97;;;9.60;99.90;;;;;;5001844;28;20202;-72
2023/05/18 07:11:59;;;;;;;4.43;3.10;;;9.70;99.90;;;;;;5002603;28;20198;-73
2023/05/18 07:14:26;;;;;;;4.90;2.53;;;9.80;99.90;;;;;;4994528;28;20210;-72
2023/05/18 07:16:52;;;;;;;3.10;2.80;;;9.90;99.90;;;;;;5002701;28;20211;-73
2023/05/18 07:19:19;;;;;;;5.80;3.30;;;10.00;99.90;;;;;;5002287;28;20245;-73
2023/05/18 07:21:46;;;;;;;5.70;3.20;;;10.10;99.90;;;;;;4997470;28;20451;-72
2023/05/18 07:24:13;;;;;;;4.47;2.88;;;10.20;99.90;;;;;;4998907;28;20198;-71
2023/05/18 07:26:41;;;;;;;4.95;3.28;;;10.30;99.90;;;;;;4990639;28;20682;-73
2023/05/18 07:29:07;;;;;;;6.43;3.33;;;10.40;99.90;;;;;;4998182;28;20210;-72
2023/05/18 07:31:37;;;;;;;4.55;2.97;;;10.50;99.90;;;;;;4998456;28;20226;-73
2023/05/18 07:34:04;;;;;;;3.67;2.85;;;10.70;99.90;;;;;;5006283;28;20210;-73
2023/05/18 07:36:31;;;;;;;3.20;2.90;;;10.70;99.90;;;;;;4993564;28;20229;-73
2023/05/18 07:38:58;;;;;;;4.90;2.92;;;10.80;99.90;;;;;;5009881;28;20341;-73
2023/05/18 07:41:26;;;;;;;4.85;2.67;;;11.00;99.90;;;;;;5009645;28;20202;-73
2023/05/18 07:43:54;;;;;;;3.50;2.63;;;11.10;99.90;;;;;;5010089;28;20202;-73
2023/05/18 07:46:21;;;;;;;3.75;2.90;;;11.30;99.90;;;;;;5009760;28;20717;-73
2023/05/18 07:48:48;;;;;;;3.08;2.78;;;11.40;99.90;;;;;;5004513;28;20195;-72
2023/05/18 07:51:15;;;;;;;3.60;2.80;;;11.40;99.90;;;;;;4993501;28;20603;-72
2023/05/18 07:53:42;;;;;;;3.20;2.90;;;11.60;99.90;;;;;;4987819;28;20204;-72
2023/05/18 07:56:08;;;;;;;5.10;2.78;;;11.70;99.90;;;;;;4993758;28;20202;-72
2023/05/18 07:58:36;;;;;;;5.97;3.45;;;11.90;99.90;;;;;;4976927;28;20220;-71
2023/05/18 08:01:04;;;;;;;2.55;2.30;;;12.00;99.90;;;;;;4976164;28;20215;-72
2023/05/18 08:03:31;;;;;;;5.55;3.03;;;12.20;99.90;;;;;;4989006;28;20373;-72
2023/05/18 08:05:59;;;;;;;3.88;3.00;;;12.40;99.90;;;;;;4994359;28;20584;-72
2023/05/18 08:08:25;;;;;;;3.63;2.60;;;12.60;99.90;;;;;;4993400;28;20265;-70
2023/05/18 08:10:52;;;;;;;3.72;3.15;;;12.70;99.90;;;;;;4993944;28;20605;-70
2023/05/18 08:13:19;;;;;;;3.83;3.05;;;12.80;99.90;;;;;;4993717;28;20275;-71
2023/05/18 08:15:46;;;;;;;4.13;2.83;;;12.80;99.90;;;;;;4993701;28;20809;-71
2023/05/18 08:18:14;;;;;;;5.60;3.40;;;12.90;99.90;;;;;;4993372;28;20478;-71
2023/05/18 08:20:41;;;;;;;4.23;3.03;;;13.00;99.90;;;;;;4993532;28;20575;-72
2023/05/18 08:23:07;;;;;;;3.63;3.10;;;13.00;99.90;;;;;;4991983;28;20458;-72
2023/05/18 08:25:34;;;;;;;3.87;3.00;;;13.10;99.90;;;;;;4993282;28;20465;-72
2023/05/18 08:28:01;;;;;;;3.30;3.00;;;13.30;99.90;;;;;;4992976;28;20908;-72
2023/05/18 08:30:28;;;;;;;3.03;2.73;;;13.40;99.90;;;;;;4992837;28;20466;-72
2023/05/18 08:32:55;;;;;;;3.57;3.13;;;13.50;99.90;;;;;;4990043;28;20473;-72
2023/05/18 08:35:23;;;;;;;3.07;2.70;;;13.60;99.90;;;;;;4987367;28;20522;-72
2023/05/18 08:37:50;;;;;;;4.40;2.80;;;13.70;99.90;;;;;;4992468;28;20484;-72
2023/05/18 08:40:17;;;;;;;5.33;3.00;;;13.80;99.90;;;;;;4993114;28;20875;-72
2023/05/18 08:42:49;;;;;;;3.27;2.97;;;13.90;99.90;;;;;;4992963;28;20950;-72
2023/05/18 08:45:22;;;;;;;4.20;3.00;;;14.10;99.90;;;;;;4991946;28;20466;-71
2023/05/18 08:47:50;;;;;;;3.17;2.63;;;14.00;99.90;;;;;;4991561;28;20514;-71
2023/05/18 08:50:20;;;;;;;5.07;2.87;;;14.30;99.90;;;;;;4989030;28;20506;-71
2023/05/18 08:52:50;;;;;;;4.80;2.83;;;14.40;99.90;;;;;;4994084;28;20473;-71
2023/05/18 08:55:18;;;;;;;4.10;3.20;;;14.50;99.90;;;;;;4991988;28;20557;-72
2023/05/18 08:57:48;;;;;;;3.87;2.63;;;14.70;99.90;;;;;;4990039;28;20482;-72
2023/05/18 09:00:17;;;;;;;3.00;2.70;;;14.60;99.90;;;;;;4992294;28;20466;-71
2023/05/18 09:02:43;;;;;;;5.37;3.57;;;14.60;99.90;;;;;;4992972;28;20465;-71
2023/05/18 09:05:12;;;;;;;5.40;3.10;;;14.90;99.90;;;;;;4992441;28;20521;-72
2023/05/18 09:07:41;;;;;;;3.73;2.90;;;15.30;99.90;;;;;;4992553;28;20564;-71
2023/05/18 09:10:11;;;;;;;4.20;2.90;;;15.50;99.90;;;;;;4991917;28;20462;-72
2023/05/18 09:12:41;;;;;;;4.57;3.07;;;15.60;99.90;;;;;;4983994;28;20467;-71
2023/05/18 09:15:09;;;;;;;5.90;3.10;;;15.80;99.90;;;;;;4983963;28;20470;-71
2023/05/18 09:17:36;;;;;;;6.07;3.20;;;16.00;99.90;;;;;;4970657;28;20479;-71
2023/05/18 09:20:04;;;;;;;5.10;3.10;;;16.00;99.90;;;;;;4972094;28;20463;-71
2023/05/18 09:22:32;;;;;;;3.30;2.90;;;16.00;99.90;;;;;;4976916;28;20900;-72
2023/05/18 09:24:59;;;;;;;5.13;2.87;;;16.20;99.90;;;;;;4984352;28;20813;-72
2023/05/18 09:27:28;;;;;;;3.43;3.13;;;16.50;99.90;;;;;;4985656;28;20862;-71
2023/05/18 09:29:56;;;;;;;3.93;3.00;;;16.90;99.90;;;;;;4987921;28;20466;-72
2023/05/18 09:32:23;;;;;;;5.57;3.90;;;16.90;99.90;;;;;;4975325;28;20971;-72
2023/05/18 09:34:50;;;;;;;4.17;2.53;;;17.10;99.90;;;;;;4986494;28;20477;-72
2023/05/18 09:37:18;;;;;;;3.70;2.20;;;17.10;99.90;;;;;;4992085;28;20493;-71
2023/05/18 09:39:44;;;;;;;3.63;2.73;;;17.00;99.90;;;;;;4987044;28;20467;-72
2023/05/18 09:42:12;;;;;;;3.30;2.30;;;16.90;99.90;;;;;;4973236;28;20477;-72
2023/05/18 09:44:41;;;;;;;4.40;2.47;;;17.30;99.90;;;;;;4975695;28;20506;-71
2023/05/18 09:47:09;;;;;;;4.03;2.50;;;17.60;99.90;;;;;;4991180;28;20490;-71
2023/05/18 09:49:37;;;;;;;4.20;2.93;;;18.00;99.90;;;;;;4988692;28;20466;-71
2023/05/18 09:52:09;;;;;;;3.60;2.40;;;18.30;99.90;;;;;;4980273;28;20466;-71
2023/05/18 09:54:36;;;;;;;3.40;2.33;;;17.90;99.20;;;;;;4972617;28;20463;-74
2023/05/18 09:57:04;;;;;;;5.17;2.80;;;17.20;99.20;;;;;;4972950;28;20561;-72
2023/05/18 09:59:32;;;;;;;3.80;2.70;;;16.70;99.90;;;;;;4991168;28;20505;-71
2023/05/18 10:02:04;;;;;;;4.63;2.50;;;16.60;99.90;;;;;;4992053;28;20842;-72
2023/05/18 10:04:38;;;;;;;4.70;2.40;;;16.40;99.20;;;;;;4991644;28;20473;-72
2023/05/18 10:07:10;;;;;;;4.77;2.50;;;16.70;99.90;;;;;;4975499;28;20491;-71
2023/05/18 10:09:37;;;;;;;5.83;2.57;;;17.20;99.90;;;;;;4982858;28;21011;-71
2023/05/18 10:12:10;;;;;;;4.80;2.27;;;17.40;99.10;;;;;;4990805;28;20880;-71
2023/05/18 10:14:37;;;;;;;2.83;2.53;;;17.60;98.30;;;;;;4990264;28;20470;-72
2023/05/18 10:17:05;;;;;;;5.43;2.53;;;18.00;99.10;;;;;;4990709;28;20486;-72
2023/05/18 10:19:35;;;;;;;4.17;2.50;;;18.00;98.70;;;;;;4983254;28;20473;-72
2023/05/18 10:22:02;;;;;;;4.13;2.90;;;17.80;99.20;;;;;;4991377;28;20966;-72
2023/05/18 10:24:33;;;;;;;4.83;2.50;;;17.80;98.80;;;;;;4990961;28;20462;-72
2023/05/18 10:27:02;;;;;;;4.27;2.70;;;18.00;98.20;;;;;;4976672;28;20486;-72
2023/05/18 10:29:30;;;;;;;3.00;2.70;;;18.60;98.40;;;;;;4972658;28;20483;-72
2023/05/18 10:32:01;;;;;;;5.27;2.77;;;19.30;99.40;;;;;;4976852;28;20522;-72
2023/05/18 10:34:30;;;;;;;3.67;2.23;;;19.90;98.70;;;;;;4972156;28;20555;-72
2023/05/18 10:36:59;;;;;;;4.30;2.30;;;20.10;97.90;;;;;;4971567;28;20490;-71
2023/05/18 10:39:27;;;;;;;4.00;2.87;;;19.90;96.90;;;;;;4971397;28;20455;-71
2023/05/18 10:41:55;;;;;;;2.83;2.60;;;19.30;96.10;;;;;;4971769;28;20486;-71
2023/05/18 10:44:24;;;;;;;6.27;2.73;;;18.70;96.60;;;;;;4971754;28;20469;-72
2023/05/18 10:46:51;;;;;;;5.20;3.43;;;18.90;95.30;;;;;;4971442;28;20861;-72
2023/05/18 10:49:22;;;;;;;2.90;2.70;;;19.10;98.30;;;;;;4970832;28;20502;-72
2023/05/18 10:51:53;;;;;;;4.77;2.33;;;19.30;96.60;;;;;;4984689;28;20466;-71
2023/05/18 10:54:22;;;;;;;4.63;2.67;;;18.90;96.00;;;;;;4989259;28;20540;-71
2023/05/18 10:56:52;;;;;;;4.73;3.33;;;19.30;97.90;;;;;;4976640;28;20506;-71
2023/05/18 10:59:21;;;;;;;6.00;2.63;;;19.60;94.90;;;;;;4989969;28;20937;-71
2023/05/18 11:01:50;;;;;;;3.23;2.50;;;19.30;96.60;;;;;;4977248;28;20518;-71
2023/05/18 11:04:22;;;;;;;4.97;2.90;;;19.20;97.20;;;;;;4972079;28;20522;-71
2023/05/18 11:06:57;;;;;;;3.10;2.57;;;19.50;97.50;;;;;;4984953;28;20494;-71
2023/05/18 11:09:25;;;;;;;2.87;2.47;;;19.90;97.90;;;;;;4987159;28;20496;-71
2023/05/18 11:11:54;;;;;;;6.17;3.70;;;20.30;95.90;;;;;;4971575;28;20467;-71
2023/05/18 11:14:29;;;;;;;2.97;2.40;;;20.50;94.90;;;;;;4981254;28;20463;-71
2023/05/18 11:17:21;;;;;;;4.83;2.90;;;20.80;93.70;;;;;;4976905;28;20486;-71
2023/05/18 11:20:12;;;;;;;4.90;2.10;;;20.90;94.40;;;;;;4979744;28;20519;-71
2023/05/18 11:22:51;;;;;;;3.87;2.50;;;21.10;94.00;;;;;;4972439;28;20534;-72
2023/05/18 11:25:40;;;;;;;4.93;2.33;;;21.70;95.10;;;;;;4987670;28;20467;-71
2023/05/18 11:28:09;;;;;;;4.53;2.73;;;22.00;93.70;;;;;;4982439;28;20572;-71
2023/05/18 11:30:47;;;;;;;6.47;2.70;;;21.40;93.40;;;;;;4998035;28;20991;-71
2023/05/18 11:33:16;;;;;;;2.50;2.13;;;21.00;92.80;;;;;;5006588;28;20487;-71
2023/05/18 11:36:02;;;;;;;2.90;2.47;;;21.10;94.40;;;;;;4994723;28;20837;-71
2023/05/18 11:38:51;;;;;;;3.17;2.40;;;21.20;93.80;;;;;;5001928;28;20462;-71
2023/05/18 11:41:29;;;;;;;3.07;2.37;;;21.80;93.90;;;;;;5002147;28;20470;-72
2023/05/18 11:44:17;;;;;;;4.93;3.07;;;22.20;94.40;;;;;;4996195;28;20471;-71
2023/05/18 11:46:55;;;;;;;3.60;2.53;;;22.00;93.00;;;;;;4989088;28;20487;-71
2023/05/18 11:49:23;;;;;;;4.70;2.30;;;22.00;92.00;;;;;;5006484;28;20488;-71
2023/05/18 11:52:00;;;;;;;3.30;2.10;;;22.40;91.90;;;;;;4996259;28;20495;-71
2023/05/18 11:54:33;;;;;;;3.23;2.83;;;22.50;93.30;;;;;;4999872;28;20470;-71
2023/05/18 11:56:59;;;;;;;5.63;2.40;;;22.60;92.30;;;;;;4998970;28;20482;-71
2023/05/18 11:59:31;;;;;;;2.60;2.30;;;22.80;92.40;;;;;;4990081;28;20463;-71
2023/05/18 12:02:01;;;;;;;2.80;2.30;;;23.10;92.00;;;;;;4997017;28;20953;-71
2023/05/18 12:04:28;;;;;;;4.30;2.10;;;23.10;89.60;;;;;;5002494;28;20819;-72
2023/05/18 12:06:57;;;;;;;3.30;2.37;;;23.20;91.50;;;;;;5002221;28;20509;-72
2023/05/18 12:09:24;;;;;;;3.63;2.30;;;23.10;90.50;;;;;;4999779;28;20633;-71
2023/05/18 12:11:52;;;;;;;4.10;2.40;;;22.50;89.50;;;;;;4998742;28;20511;-72
2023/05/18 12:14:20;;;;;;;2.40;2.20;;;22.50;90.60;;;;;;5006539;28;20475;-72
2023/05/18 12:16:48;;;;;;;4.97;2.40;;;22.30;91.50;;;;;;4990569;28;20967;-72
2023/05/18 12:19:16;;;;;;;2.60;2.40;;;21.80;90.30;;;;;;4989943;28;20510;-72
2023/05/18 12:21:42;;;;;;;3.43;2.30;;;22.20;92.40;;;;;;4990729;28;20464;-71
2023/05/18 12:24:09;;;;;;;3.20;1.93;;;22.80;90.90;;;;;;4998453;28;20468;-71
2023/05/18 12:26:37;;;;;;;5.30;2.10;;;22.80;89.10;;;;;;4990764;28;20989;-72
2023/05/18 12:29:05;;;;;;;5.40;2.37;;;22.70;91.30;;;;;;5005159;28;20576;-71
2023/05/18 12:31:32;;;;;;;4.23;2.60;;;22.70;90.00;;;;;;4998868;28;20980;-72
2023/05/18 12:34:02;;;;;;;4.17;2.70;;;22.90;90.90;;;;;;4998611;28;20982;-72
2023/05/18 12:36:29;;;;;;;7.40;2.40;;;22.70;89.10;;;;;;4999525;28;21089;-72
2023/05/18 12:38:56;;;;;;;5.10;2.10;;;23.00;91.10;;;;;;5001832;28;20474;-71
2023/05/18 12:41:23;;;;;;;3.00;2.00;;;23.20;90.90;;;;;;5003928;28;20467;-71
2023/05/18 12:43:53;;;;;;;3.10;1.97;;;23.60;91.10;;;;;;5000024;28;20465;-71
2023/05/18 12:46:22;;;;;;;2.67;1.97;;;23.60;90.40;;;;;;5011019;28;20488;-71
2023/05/18 12:48:56;;;;;;;5.10;2.10;;;23.20;90.40;;;;;;5004945;28;20506;-72
2023/05/18 12:51:23;;;;;;;3.67;2.13;;;22.60;90.40;;;;;;5003645;28;20493;-71
2023/05/18 12:53:50;;;;;;;4.70;2.50;;;22.50;91.00;;;;;;4998997;28;20956;-72
2023/05/18 12:56:17;;;;;;;4.30;2.03;;;22.80;90.10;;;;;;5003456;28;20495;-72
2023/05/18 12:58:59;;;;;;;2.43;1.90;;;22.70;90.80;;;;;;4997209;28;20462;-72
2023/05/18 13:01:27;;;;;;;4.43;1.93;;;22.70;90.90;;;;;;5005072;28;20470;-71